Time;durP1;ratioP1;P1;durP2;ratioP2;P2;SDS_P1;SDS_P2;PMS_P1;PMS_P2;Temp;Humidity;BMP_temperature;BMP_pressure;BME280_temperature;BME280_humidity;BME280_pressure;Samples;Min_cycle;Max_cycle;Signal;HPM_P1;HPM_P2
2021/08/22 00:01:52;;;;;;;9.8;6.7;;;;;;;17.57;81.65234;939.9042;;;;
2021/08/22 00:04:17;;;;;;;5.7;4.6;;;;;;;17.52;82.13086;939.9178;;;;
2021/08/22 00:06:42;;;;;;;5.3;4.4;;;;;;;17.55;82.22754;939.9288;;;;
2021/08/22 00:09:07;;;;;;;7.2;4.8;;;;;;;17.61;81.83496;939.9244;;;;
2021/08/22 00:11:33;;;;;;;6.1;4.5;;;;;;;17.57;82.00195;939.9952;;;;
2021/08/22 00:13:58;;;;;;;6.5;4.7;;;;;;;17.63;81.93066;939.9994;;;;
2021/08/22 00:16:23;;;;;;;6.3;5;;;;;;;17.71;81.31934;939.9977;;;;
2021/08/22 00:18:48;;;;;;;7.6;4.7;;;;;;;17.77;80.99316;940.0507;;;;
2021/08/22 00:21:13;;;;;;;5.6;4.5;;;;;;;17.81;80.98926;940.0453;;;;
2021/08/22 00:23:38;;;;;;;5.9;4.4;;;;;;;17.82;80.68945;940.0219;;;;
2021/08/22 00:26:03;;;;;;;5.7;4.3;;;;;;;17.75;81.04785;939.9995;;;;
2021/08/22 00:28:28;;;;;;;6.8;5.1;;;;;;;17.65;81.2959;940.0715;;;;
2021/08/22 00:30:53;;;;;;;6.7;4.6;;;;;;;17.58;81.49316;940.0964;;;;
2021/08/22 00:33:19;;;;;;;8;5.2;;;;;;;17.44;82.29004;940.0912;;;;
2021/08/22 00:35:44;;;;;;;7;4.7;;;;;;;17.32;83.04297;940.0886;;;;
2021/08/22 00:38:09;;;;;;;10.4;5.5;;;;;;;17.14;84.08887;940.1228;;;;
2021/08/22 00:40:34;;;;;;;6.8;4.9;;;;;;;17.28;83.70898;940.0199;;;;
2021/08/22 00:43:00;;;;;;;6.7;4.8;;;;;;;17.36;83.48145;940.0614;;;;
2021/08/22 00:45:24;;;;;;;6.3;4.6;;;;;;;17.25;84.04004;940.0517;;;;
2021/08/22 00:47:50;;;;;;;6;3.9;;;;;;;17.33;83.71973;939.9436;;;;
2021/08/22 00:50:15;;;;;;;6.5;4.7;;;;;;;17.35;83.87402;939.9006;;;;
2021/08/22 00:52:40;;;;;;;7.3;4.7;;;;;;;17.36;83.39941;939.8851;;;;
2021/08/22 00:55:05;;;;;;;7.2;4.6;;;;;;;17.36;83.53906;939.8675;;;;
2021/08/22 00:57:30;;;;;;;6.9;4.4;;;;;;;17.33;83.38281;939.7697;;;;
2021/08/22 00:59:55;;;;;;;6.1;4.3;;;;;;;17.42;82.36816;939.7993;;;;
2021/08/22 01:02:21;;;;;;;6.8;4.3;;;;;;;17.5;82.10449;939.6878;;;;
2021/08/22 01:04:47;;;;;;;6;4.7;;;;;;;17.46;82.375;939.6852;;;;
2021/08/22 01:07:11;;;;;;;8.9;4.7;;;;;;;17.3;82.92578;939.6895;;;;
2021/08/22 01:09:36;;;;;;;6.9;4.9;;;;;;;17.34;82.79297;939.6479;;;;
2021/08/22 01:12:02;;;;;;;5;3.9;;;;;;;17.29;82.66699;939.6213;;;;
2021/08/22 01:14:27;;;;;;;6.2;4.5;;;;;;;17.24;82.91406;939.6325;;;;
2021/08/22 01:16:52;;;;;;;6.2;4.5;;;;;;;17.3;82.81934;939.6036;;;;
2021/08/22 01:19:18;;;;;;;6;4.3;;;;;;;17.22;83.25781;939.5789;;;;
2021/08/22 01:21:42;;;;;;;6.5;4.6;;;;;;;17.21;83.2666;939.5989;;;;
2021/08/22 01:24:08;;;;;;;7.6;4.8;;;;;;;17.22;83.32813;939.5081;;;;
2021/08/22 01:26:32;;;;;;;8.3;5.5;;;;;;;17.02;84.15918;939.5258;;;;
2021/08/22 01:28:58;;;;;;;8;4.6;;;;;;;17.01;84.17871;939.5184;;;;
2021/08/22 01:31:23;;;;;;;8.5;4.9;;;;;;;17.1;84.01074;939.5296;;;;
2021/08/22 01:33:48;;;;;;;7.4;5.1;;;;;;;17.18;83.42383;939.5179;;;;
2021/08/22 01:36:13;;;;;;;6.8;4.9;;;;;;;17.25;83.37793;939.5255;;;;
2021/08/22 01:38:38;;;;;;;8.6;5.3;;;;;;;17.23;83.63086;939.5377;;;;
2021/08/22 01:41:03;;;;;;;6.6;4.7;;;;;;;17.31;83.30859;939.5527;;;;
2021/08/22 01:43:29;;;;;;;6.6;4.8;;;;;;;17.35;83.01563;939.5625;;;;
2021/08/22 01:45:55;;;;;;;5.2;4.3;;;;;;;17.41;82.50488;939.5231;;;;
2021/08/22 01:48:20;;;;;;;4.7;4.1;;;;;;;17.33;82.70996;939.4855;;;;
2021/08/22 01:50:46;;;;;;;5.3;4.5;;;;;;;17.31;82.70703;939.5156;;;;
2021/08/22 01:53:12;;;;;;;7.1;4.7;;;;;;;17.39;82.37305;939.4428;;;;
2021/08/22 01:55:36;;;;;;;7;4.7;;;;;;;17.4;82.3877;939.4506;;;;
2021/08/22 01:58:02;;;;;;;5.9;4.5;;;;;;;17.37;82.53125;939.4592;;;;
2021/08/22 02:00:27;;;;;;;5.8;4.5;;;;;;;17.42;82.4707;939.4411;;;;
2021/08/22 02:02:52;;;;;;;4.8;4;;;;;;;17.43;82.46191;939.4617;;;;
2021/08/22 02:05:17;;;;;;;7.8;4.8;;;;;;;17.36;82.66895;939.4763;;;;
2021/08/22 02:07:43;;;;;;;7;4.4;;;;;;;17.32;82.87109;939.5476;;;;
2021/08/22 02:10:08;;;;;;;5.5;3.9;;;;;;;17.22;83.32813;939.5595;;;;
2021/08/22 02:12:33;;;;;;;5.5;4.2;;;;;;;17.17;83.72363;939.634;;;;
2021/08/22 02:14:59;;;;;;;7;4.4;;;;;;;17.2;83.6377;939.6964;;;;
2021/08/22 02:17:24;;;;;;;6.4;4.4;;;;;;;17.19;83.63379;939.7552;;;;
2021/08/22 02:19:49;;;;;;;5.4;4.1;;;;;;;17.2;83.83301;939.8356;;;;
2021/08/22 02:22:15;;;;;;;6.6;4.7;;;;;;;17.29;83.0752;939.9328;;;;
2021/08/22 02:24:40;;;;;;;6.8;4.7;;;;;;;17.38;83.30078;939.9815;;;;
2021/08/22 02:27:12;;;;;;;8.2;4.8;;;;;;;17.42;83.5625;940.0086;;;;
2021/08/22 02:29:38;;;;;;;6.3;4.5;;;;;;;17.56;82.46484;940.1337;;;;
2021/08/22 02:32:03;;;;;;;6.2;4.5;;;;;;;17.67;81.94922;940.0801;;;;
2021/08/22 02:34:28;;;;;;;5.6;4.4;;;;;;;17.67;82.03027;940.1599;;;;
2021/08/22 02:36:54;;;;;;;9;4.3;;;;;;;17.82;81.10742;940.1969;;;;
2021/08/22 02:39:19;;;;;;;6.8;4.3;;;;;;;17.83;81.75879;940.345;;;;
2021/08/22 02:41:44;;;;;;;7.3;4.2;;;;;;;17.82;82.7207;940.4321;;;;
2021/08/22 02:44:10;;;;;;;6.6;4.6;;;;;;;17.99;81.09277;940.39;;;;
2021/08/22 02:46:35;;;;;;;6.2;4.4;;;;;;;17.97;80.9248;940.3831;;;;
2021/08/22 02:49:00;;;;;;;6.2;4.3;;;;;;;18.03;80.51855;940.3446;;;;
2021/08/22 02:51:26;;;;;;;5;4.1;;;;;;;18;81.8125;940.4189;;;;
2021/08/22 02:53:51;;;;;;;6.9;4.7;;;;;;;17.94;82.28027;940.4882;;;;
2021/08/22 02:56:17;;;;;;;7.9;5.1;;;;;;;17.95;81.78125;940.4253;;;;
2021/08/22 02:58:42;;;;;;;5.8;4.9;;;;;;;17.81;82.61523;940.5206;;;;
2021/08/22 03:01:07;;;;;;;6.7;4.9;;;;;;;17.78;83.21191;940.5847;;;;
2021/08/22 03:03:32;;;;;;;7.1;4.5;;;;;;;17.86;83.36621;940.7853;;;;
2021/08/22 03:05:57;;;;;;;5.9;4.7;;;;;;;17.73;85.1416;940.8206;;;;
2021/08/22 03:08:22;;;;;;;7.2;4.8;;;;;;;17.6;87.08984;940.9964;;;;
2021/08/22 03:10:48;;;;;;;7.3;5;;;;;;;17.42;87.5166;941.0432;;;;
2021/08/22 03:13:13;;;;;;;7.1;4.3;;;;;;;17.58;87.44434;941.087;;;;
2021/08/22 03:15:38;;;;;;;6.7;4.8;;;;;;;17.57;87.66504;941.2385;;;;
2021/08/22 03:18:03;;;;;;;6.9;4.9;;;;;;;17.58;87.43457;941.3293;;;;
2021/08/22 03:20:28;;;;;;;7.2;5;;;;;;;17.64;87.36426;941.5101;;;;
2021/08/22 03:22:53;;;;;;;5.8;4.4;;;;;;;17.62;87.47656;941.6939;;;;
2021/08/22 03:25:18;;;;;;;7.1;4.7;;;;;;;17.52;88.98828;941.7222;;;;
2021/08/22 03:27:44;;;;;;;6.8;5.1;;;;;;;17.51;89.04395;941.84;;;;
2021/08/22 03:30:09;;;;;;;8.8;5.4;;;;;;;17.24;91.27148;942.1018;;;;
2021/08/22 03:32:34;;;;;;;9;5.2;;;;;;;17.01;91.45801;942.2433;;;;
2021/08/22 03:34:59;;;;;;;7.4;5.2;;;;;;;16.97;93.02539;942.3362;;;;
2021/08/22 03:37:24;;;;;;;7.9;4.2;;;;;;;17.02;92.79297;942.3948;;;;
2021/08/22 03:39:49;;;;;;;5.3;4.1;;;;;;;17.09;92.13379;942.4739;;;;
2021/08/22 03:42:14;;;;;;;7.3;4.4;;;;;;;17.13;93.83594;942.5701;;;;
2021/08/22 03:44:39;;;;;;;6.5;4.5;;;;;;;17.12;95.01465;942.501;;;;
2021/08/22 03:47:05;;;;;;;6.5;4.2;;;;;;;17.16;95.63672;942.4475;;;;
2021/08/22 03:49:30;;;;;;;3.5;3.1;;;;;;;17.12;90.81836;942.4334;;;;
2021/08/22 03:51:55;;;;;;;3.2;2.5;;;;;;;17.19;91.38965;942.4585;;;;
2021/08/22 03:54:20;;;;;;;5.1;2.6;;;;;;;17.26;90.79004;942.4598;;;;
2021/08/22 03:56:45;;;;;;;4.4;3.3;;;;;;;17.18;92.30371;942.4779;;;;
2021/08/22 03:59:10;;;;;;;6.1;4.4;;;;;;;17.15;93.19043;942.5884;;;;
2021/08/22 04:02:31;;;;;;;5.7;4.5;;;;;;;17.18;93.96191;942.4658;;;;
2021/08/22 04:04:56;;;;;;;6.5;4.7;;;;;;;17.22;93.35449;942.4695;;;;
2021/08/22 04:07:21;;;;;;;6.2;4.6;;;;;;;17.34;92.67383;942.4822;;;;
2021/08/22 04:09:46;;;;;;;6.7;4.6;;;;;;;17.39;92.52148;942.4745;;;;
2021/08/22 04:12:11;;;;;;;4.9;3.7;;;;;;;17.39;92.62598;942.4827;;;;
2021/08/22 04:14:36;;;;;;;5;3.4;;;;;;;17.44;91.95313;942.3962;;;;
2021/08/22 04:17:01;;;;;;;5.1;3.8;;;;;;;17.54;91.93848;942.3535;;;;
2021/08/22 04:19:26;;;;;;;5.3;3.6;;;;;;;17.56;91.86133;942.1511;;;;
2021/08/22 04:21:51;;;;;;;5.7;3.8;;;;;;;17.51;90.70313;942.1105;;;;
2021/08/22 04:24:16;;;;;;;5.5;3.8;;;;;;;17.44;90.74414;942.0646;;;;
2021/08/22 04:26:42;;;;;;;6.5;3.6;;;;;;;17.13;92.72363;942.0028;;;;
2021/08/22 04:29:07;;;;;;;4.4;3.4;;;;;;;17.01;92.98633;941.9192;;;;
2021/08/22 04:31:32;;;;;;;3.8;2.6;;;;;;;17.01;92.78906;941.858;;;;
2021/08/22 04:33:58;;;;;;;4.1;2.4;;;;;;;16.97;92.96484;941.5881;;;;
2021/08/22 04:36:23;;;;;;;3.6;2.1;;;;;;;16.88;92.72559;941.1964;;;;
2021/08/22 04:38:48;;;;;;;2.6;2;;;;;;;16.93;93.03809;941.035;;;;
2021/08/22 04:41:13;;;;;;;4.7;2.6;;;;;;;17.07;94.20313;941.3114;;;;
2021/08/22 04:43:39;;;;;;;4.3;2.9;;;;;;;16.87;95.54102;941.4249;;;;
2021/08/22 04:46:04;;;;;;;3.2;2.7;;;;;;;16.82;96.70117;941.3466;;;;
2021/08/22 04:48:29;;;;;;;3.5;2.4;;;;;;;16.96;95.87109;941.2286;;;;
2021/08/22 04:50:54;;;;;;;2.5;2;;;;;;;16.84;93.78418;941.303;;;;
2021/08/22 04:53:19;;;;;;;2.2;2;;;;;;;16.81;92.24902;941.3496;;;;
2021/08/22 04:55:44;;;;;;;3.5;2.3;;;;;;;16.73;91.73438;941.3938;;;;
2021/08/22 04:58:09;;;;;;;3;1.9;;;;;;;16.62;92.92676;941.3492;;;;
2021/08/22 05:00:35;;;;;;;2.6;2.1;;;;;;;16.71;93.59473;941.2178;;;;
2021/08/22 05:03:00;;;;;;;2.8;1.8;;;;;;;16.73;91.74609;941.1847;;;;
2021/08/22 05:05:25;;;;;;;3;1.8;;;;;;;16.73;93.80664;941.2258;;;;
2021/08/22 05:07:50;;;;;;;7.4;3.6;;;;;;;16.59;95.9082;941.1613;;;;
2021/08/22 05:10:16;;;;;;;3;2.4;;;;;;;16.46;97.0498;941.1511;;;;
2021/08/22 05:12:41;;;;;;;4.8;2.5;;;;;;;16.41;97.4541;941.0669;;;;
2021/08/22 05:15:06;;;;;;;9;4.7;;;;;;;16.38;97.37695;941.0439;;;;
2021/08/22 05:19:56;;;;;;;3.1;1.9;;;;;;;16.35;97.56738;941.1116;;;;
2021/08/22 05:22:21;;;;;;;3.6;2.2;;;;;;;16.41;97.63965;941.0684;;;;
2021/08/22 05:24:46;;;;;;;3.3;2.2;;;;;;;16.43;97.71484;941.1827;;;;
2021/08/22 05:27:12;;;;;;;2.4;2.2;;;;;;;16.44;97.78418;941.1602;;;;
2021/08/22 05:29:37;;;;;;;7.5;4.3;;;;;;;16.36;98.32129;941.265;;;;
2021/08/22 05:32:04;;;;;;;3.8;2.7;;;;;;;16.5;97.87793;941.2972;;;;
2021/08/22 05:34:27;;;;;;;5.3;3.2;;;;;;;16.4;97.60059;941.3;;;;
2021/08/22 05:36:53;;;;;;;3;2;;;;;;;16.56;97.49805;941.3304;;;;
2021/08/22 05:39:50;;;;;;;4.2;2.4;;;;;;;16.62;97.02539;941.2961;;;;
2021/08/22 05:42:14;;;;;;;3.7;2.7;;;;;;;16.63;96.94727;941.4146;;;;
2021/08/22 05:44:39;;;;;;;4.6;3.3;;;;;;;16.6;96.63965;941.4241;;;;
2021/08/22 05:47:04;;;;;;;2.4;2;;;;;;;16.62;96.92188;941.5199;;;;
2021/08/22 05:49:32;;;;;;;2.7;2.3;;;;;;;16.62;96.80566;941.54;;;;
2021/08/22 05:51:57;;;;;;;3.3;2.7;;;;;;;16.7;96.53418;941.6088;;;;
2021/08/22 05:54:23;;;;;;;3.7;2.5;;;;;;;16.8;96.19727;941.7245;;;;
2021/08/22 05:56:48;;;;;;;2.1;1.8;;;;;;;16.78;95.54492;941.7697;;;;
2021/08/22 05:59:14;;;;;;;3.2;1.8;;;;;;;16.92;95.3418;941.7326;;;;
2021/08/22 06:01:40;;;;;;;2.9;1.8;;;;;;;17.11;93.7959;941.7391;;;;
2021/08/22 06:04:05;;;;;;;1.7;1.6;;;;;;;17.28;92.30176;941.5742;;;;
2021/08/22 06:06:31;;;;;;;2.5;1.6;;;;;;;17.48;92.93457;941.7276;;;;
2021/08/22 06:08:57;;;;;;;2.2;1.6;;;;;;;17.67;91.54785;941.6934;;;;
2021/08/22 06:11:22;;;;;;;2;1.5;;;;;;;17.96;90.34375;941.6113;;;;
2021/08/22 06:13:47;;;;;;;2.7;1.6;;;;;;;18.23;88.04004;941.7159;;;;
2021/08/22 06:16:13;;;;;;;2.3;1.6;;;;;;;18.22;87.01367;941.728;;;;
2021/08/22 06:18:38;;;;;;;2.1;1.5;;;;;;;18.03;88.08008;941.6816;;;;
2021/08/22 06:21:03;;;;;;;2.4;1.6;;;;;;;17.92;89.83496;941.6803;;;;
2021/08/22 06:23:28;;;;;;;2.3;1.8;;;;;;;18.02;90.36621;941.6428;;;;
2021/08/22 06:25:54;;;;;;;1.9;1.7;;;;;;;18.05;89.56055;941.5933;;;;
2021/08/22 06:28:19;;;;;;;2.7;1.7;;;;;;;18.01;89.21484;941.6548;;;;
2021/08/22 06:30:45;;;;;;;2.4;1.7;;;;;;;17.93;89.65332;941.6422;;;;
2021/08/22 06:33:10;;;;;;;2.7;1.6;;;;;;;17.91;91.64453;941.6063;;;;
2021/08/22 06:35:37;;;;;;;1.8;1.5;;;;;;;17.73;91.55859;941.4788;;;;
2021/08/22 06:38:02;;;;;;;2.5;1.7;;;;;;;17.77;91.16211;941.5522;;;;
2021/08/22 06:40:27;;;;;;;2.2;1.7;;;;;;;17.51;91.08594;941.4825;;;;
2021/08/22 06:42:53;;;;;;;2.6;1.9;;;;;;;17.44;92.56738;941.4985;;;;
2021/08/22 06:45:36;;;;;;;2.4;1.7;;;;;;;17.43;92.31055;941.5044;;;;
2021/08/22 06:47:46;;;;;;;2.1;1.7;;;;;;;17.57;92.23633;941.4929;;;;
2021/08/22 06:50:09;;;;;;;3;1.9;;;;;;;17.53;91.40137;941.3107;;;;
2021/08/22 06:52:34;;;;;;;2.6;1.7;;;;;;;17.56;91.27148;941.2974;;;;
2021/08/22 06:55:00;;;;;;;1.7;1.5;;;;;;;17.63;90.83203;941.2711;;;;
2021/08/22 06:57:25;;;;;;;1.9;1.6;;;;;;;17.66;90.96484;941.2433;;;;
2021/08/22 06:59:50;;;;;;;2.2;1.7;;;;;;;17.56;90.93359;941.2709;;;;
2021/08/22 07:02:15;;;;;;;1.5;1.3;;;;;;;17.61;90.77051;941.1888;;;;
2021/08/22 07:04:40;;;;;;;1.8;1.6;;;;;;;17.52;89.98633;941.1771;;;;
2021/08/22 07:07:06;;;;;;;2.6;1.5;;;;;;;17.55;89.5625;941.06;;;;
2021/08/22 07:09:30;;;;;;;2.1;1.5;;;;;;;17.64;87.56152;941.0591;;;;
2021/08/22 07:11:56;;;;;;;2.9;1.3;;;;;;;17.73;87.6377;941.1613;;;;
2021/08/22 07:14:21;;;;;;;2.1;1.3;;;;;;;17.8;88.34863;941.1064;;;;
2021/08/22 07:16:46;;;;;;;1.9;1.4;;;;;;;17.91;89.87988;941.1108;;;;
2021/08/22 07:19:11;;;;;;;1.8;1.4;;;;;;;17.97;90.1709;941.1445;;;;
2021/08/22 07:21:36;;;;;;;1.7;1.6;;;;;;;18.03;89.38086;941.2092;;;;
2021/08/22 07:24:01;;;;;;;1.6;1.5;;;;;;;18.08;90.34473;941.2335;;;;
2021/08/22 07:26:27;;;;;;;2.6;1.6;;;;;;;18.12;89.67773;941.2523;;;;
2021/08/22 07:28:52;;;;;;;4.1;2.4;;;;;;;18.08;90.09863;941.3061;;;;
2021/08/22 07:31:18;;;;;;;2.4;1.7;;;;;;;18.01;90.66504;941.3011;;;;
2021/08/22 07:33:44;;;;;;;2.7;1.5;;;;;;;17.97;91.67969;941.197;;;;
2021/08/22 07:36:08;;;;;;;2.6;1.8;;;;;;;18;91.98828;941.1522;;;;
2021/08/22 07:38:33;;;;;;;2.1;1.5;;;;;;;17.95;91.96582;941.1892;;;;
2021/08/22 07:40:58;;;;;;;1.9;1.6;;;;;;;17.83;92.28906;941.0999;;;;
2021/08/22 07:43:24;;;;;;;2.4;1.8;;;;;;;17.97;92.81934;941.0592;;;;
2021/08/22 07:45:49;;;;;;;7.2;4.6;;;;;;;17.87;92.3916;941.0871;;;;
2021/08/22 07:48:14;;;;;;;2.2;2;;;;;;;17.92;92.87793;941.0083;;;;
2021/08/22 07:50:39;;;;;;;2.5;1.5;;;;;;;17.95;92.44238;940.9749;;;;
2021/08/22 07:53:04;;;;;;;3.1;2.2;;;;;;;18.05;92.48633;940.8947;;;;
2021/08/22 07:55:30;;;;;;;3.2;2;;;;;;;18.01;94.17578;940.8716;;;;
2021/08/22 07:57:55;;;;;;;3.1;2.3;;;;;;;17.99;93.55469;940.8767;;;;
2021/08/22 08:00:20;;;;;;;2.8;1.5;;;;;;;17.97;93.57422;940.8368;;;;
2021/08/22 08:02:45;;;;;;;2.1;1.8;;;;;;;18.04;94.20313;940.7885;;;;
2021/08/22 08:05:10;;;;;;;2;1.8;;;;;;;17.89;94.83203;940.7075;;;;
2021/08/22 08:07:35;;;;;;;2.4;1.9;;;;;;;18;93.72949;940.7372;;;;
2021/08/22 08:10:01;;;;;;;1.9;1.7;;;;;;;18.12;92.10645;940.7808;;;;
2021/08/22 08:12:27;;;;;;;1.9;1.4;;;;;;;18.23;90.1416;940.7939;;;;
2021/08/22 08:14:51;;;;;;;1.9;1.5;;;;;;;18.35;89.59766;940.8329;;;;
2021/08/22 08:17:17;;;;;;;1.5;1.4;;;;;;;18.39;88.96582;940.8694;;;;
2021/08/22 08:19:42;;;;;;;1.6;1.5;;;;;;;18.33;89.18555;940.8631;;;;
2021/08/22 08:22:09;;;;;;;1.5;1.4;;;;;;;18.35;88.66797;940.8096;;;;
2021/08/22 08:24:33;;;;;;;2;1.5;;;;;;;18.35;88.21484;940.8322;;;;
2021/08/22 08:26:58;;;;;;;1.8;1.5;;;;;;;18.34;88.14355;940.7332;;;;
2021/08/22 08:29:51;;;;;;;3.3;1.6;;;;;;;18.24;87.40137;940.7662;;;;
2021/08/22 08:32:16;;;;;;;2.1;1.7;;;;;;;18.18;88.50586;940.7709;;;;
2021/08/22 08:34:41;;;;;;;2.4;1.8;;;;;;;18.27;88.96582;940.7529;;;;
2021/08/22 08:37:06;;;;;;;2.4;1.7;;;;;;;18.22;88.71191;940.7552;;;;
2021/08/22 08:39:31;;;;;;;3.6;2.7;;;;;;;18.28;88.71191;940.7293;;;;
2021/08/22 08:41:56;;;;;;;2.6;2.1;;;;;;;18.22;90.08203;940.6446;;;;
2021/08/22 08:44:22;;;;;;;2.6;2.1;;;;;;;18.38;89.42871;940.6841;;;;
2021/08/22 08:46:47;;;;;;;2;1.8;;;;;;;18.57;89.86328;940.6877;;;;
2021/08/22 08:49:12;;;;;;;1.6;1.5;;;;;;;18.73;90.10547;940.6854;;;;
2021/08/22 08:51:38;;;;;;;2.1;1.9;;;;;;;18.83;89.08008;940.6636;;;;
2021/08/22 08:54:03;;;;;;;2.8;1.9;;;;;;;18.98;88.12012;940.7133;;;;
2021/08/22 08:56:28;;;;;;;2.4;2;;;;;;;19.18;87.3916;940.7113;;;;
2021/08/22 08:58:53;;;;;;;2.4;1.9;;;;;;;19.37;85.84473;940.6803;;;;
2021/08/22 09:01:18;;;;;;;2.2;1.7;;;;;;;19.49;85.90234;940.6863;;;;
2021/08/22 09:03:43;;;;;;;4;1.9;;;;;;;19.73;85.55273;940.6113;;;;
2021/08/22 09:06:08;;;;;;;2;1.8;;;;;;;19.9;86.9375;940.5578;;;;
2021/08/22 09:08:33;;;;;;;1.6;1.5;;;;;;;19.85;85.88867;940.6043;;;;
2021/08/22 09:10:58;;;;;;;2.7;1.7;;;;;;;20.12;83.74805;940.6242;;;;
2021/08/22 09:13:24;;;;;;;1.9;1.6;;;;;;;20.31;83.93555;940.6223;;;;
2021/08/22 09:16:03;;;;;;;2.2;1.8;;;;;;;20.7;79.04297;940.6912;;;;
2021/08/22 09:18:28;;;;;;;2.8;1.8;;;;;;;20.88;77.77832;940.6292;;;;
2021/08/22 09:21:02;;;;;;;6.3;1.8;;;;;;;21.02;75.60449;940.6046;;;;
2021/08/22 09:23:28;;;;;;;2.6;1.8;;;;;;;21.6;73.40723;940.5415;;;;
2021/08/22 09:26:05;;;;;;;1.7;1.5;;;;;;;21.45;73.16113;940.5645;;;;
2021/08/22 09:28:30;;;;;;;3.1;2;;;;;;;21.67;73.2793;940.4886;;;;
2021/08/22 09:31:01;;;;;;;2.6;1.5;;;;;;;21.69;70.92773;940.4717;;;;
2021/08/22 09:33:40;;;;;;;1.6;1.4;;;;;;;21.69;74.46484;940.5609;;;;
2021/08/22 09:36:05;;;;;;;2.3;1.9;;;;;;;21.52;75.04492;940.5851;;;;
2021/08/22 09:38:30;;;;;;;2.1;1.9;;;;;;;21.2;76.67773;940.5601;;;;
2021/08/22 09:40:55;;;;;;;1.7;1.6;;;;;;;21.2;75.7998;940.4597;;;;
2021/08/22 09:43:20;;;;;;;1.7;1.6;;;;;;;21;75.99805;940.5247;;;;
2021/08/22 09:45:45;;;;;;;2.6;1.8;;;;;;;20.97;79.06934;940.5047;;;;
2021/08/22 09:48:10;;;;;;;2.4;2.1;;;;;;;20.85;77.39844;940.4803;;;;
2021/08/22 09:50:39;;;;;;;2.8;2;;;;;;;20.7;80.76172;940.4952;;;;
2021/08/22 09:53:01;;;;;;;2.4;1.8;;;;;;;20.47;80.25195;940.5275;;;;
2021/08/22 09:57:07;;;;;;;4.4;2.5;;;;;;;20.39;80.76465;940.5289;;;;
2021/08/22 09:59:32;;;;;;;3.6;2.2;;;;;;;20.36;78.01367;940.4998;;;;
2021/08/22 10:01:57;;;;;;;2.6;2;;;;;;;20.36;76.72949;940.533;;;;
2021/08/22 10:04:22;;;;;;;2.9;2.1;;;;;;;20.48;77.43848;940.5695;;;;
2021/08/22 10:06:47;;;;;;;2.3;1.9;;;;;;;20.62;79.47363;940.616;;;;
2021/08/22 10:09:13;;;;;;;1.9;1.7;;;;;;;20.73;80.69727;940.6021;;;;
2021/08/22 10:11:38;;;;;;;2.3;2.1;;;;;;;20.81;80.90039;940.6331;;;;
2021/08/22 10:14:03;;;;;;;3.5;2.1;;;;;;;20.81;79.19238;940.664;;;;
2021/08/22 10:16:28;;;;;;;2.1;1.9;;;;;;;20.71;78.25;940.7388;;;;
2021/08/22 10:18:53;;;;;;;2.4;2;;;;;;;20.8;78.3252;940.7225;;;;
2021/08/22 10:21:18;;;;;;;2.7;2.1;;;;;;;20.78;80.71875;940.795;;;;
2021/08/22 10:23:44;;;;;;;2.3;1.9;;;;;;;20.68;81.64551;940.8269;;;;
2021/08/22 10:26:09;;;;;;;2.5;2.2;;;;;;;20.79;82.08789;940.7859;;;;
2021/08/22 10:28:34;;;;;;;3;2.3;;;;;;;20.84;83.20605;940.8117;;;;
2021/08/22 10:30:59;;;;;;;2.6;2;;;;;;;20.84;83.60352;940.8408;;;;
2021/08/22 10:33:27;;;;;;;2.9;2.2;;;;;;;20.8;80.85059;940.8843;;;;
2021/08/22 10:35:49;;;;;;;2.2;1.8;;;;;;;20.83;81.93066;940.8824;;;;
2021/08/22 10:38:14;;;;;;;2.9;2;;;;;;;20.94;82.90918;940.7581;;;;
2021/08/22 10:40:39;;;;;;;2.3;2;;;;;;;21.05;81.17676;940.804;;;;
2021/08/22 10:43:05;;;;;;;2.5;2;;;;;;;21.12;82.73242;940.7625;;;;
2021/08/22 10:45:30;;;;;;;3.1;2.3;;;;;;;21.13;82.74609;940.7459;;;;
2021/08/22 10:47:55;;;;;;;3.5;2.1;;;;;;;20.95;85.3916;940.7139;;;;
2021/08/22 10:50:21;;;;;;;2.1;1.9;;;;;;;20.78;85.97656;940.7344;;;;
2021/08/22 10:52:45;;;;;;;2.3;1.8;;;;;;;20.97;83.04492;940.7159;;;;
2021/08/22 10:55:10;;;;;;;2.7;2.2;;;;;;;21.08;83.26367;940.7967;;;;
2021/08/22 10:57:35;;;;;;;2.8;2.1;;;;;;;20.99;82.7793;940.6756;;;;
2021/08/22 11:00:00;;;;;;;2.6;1.9;;;;;;;21.01;83.48242;940.6178;;;;
2021/08/22 11:02:26;;;;;;;1.9;1.7;;;;;;;21;84.88574;940.6561;;;;
2021/08/22 11:04:51;;;;;;;3;2.4;;;;;;;21.01;84.5957;940.6653;;;;
2021/08/22 11:07:16;;;;;;;2.8;2.4;;;;;;;20.9;81.94434;940.6782;;;;
2021/08/22 11:09:42;;;;;;;2.3;2;;;;;;;20.86;80.88477;940.7025;;;;
2021/08/22 11:12:06;;;;;;;3.1;2.2;;;;;;;20.85;81.6416;940.7151;;;;
2021/08/22 11:14:31;;;;;;;3.6;2.2;;;;;;;20.88;81.49609;940.868;;;;
2021/08/22 11:16:56;;;;;;;4.2;2.6;;;;;;;20.55;80.34863;940.9885;;;;
2021/08/22 11:19:21;;;;;;;3.2;2.4;;;;;;;20.52;81.96777;940.926;;;;
2021/08/22 11:21:46;;;;;;;3.2;2.5;;;;;;;20.52;82.99512;940.8881;;;;
2021/08/22 11:24:12;;;;;;;3.6;2;;;;;;;20.65;83.49805;940.8906;;;;
2021/08/22 11:26:37;;;;;;;2.8;2.4;;;;;;;20.65;83.52148;940.8883;;;;
2021/08/22 11:29:02;;;;;;;2.7;2.3;;;;;;;20.7;82.7373;940.8295;;;;
2021/08/22 11:31:27;;;;;;;2.8;2.3;;;;;;;20.6;82.61133;940.742;;;;
2021/08/22 11:33:52;;;;;;;2.5;2.1;;;;;;;20.76;83.38965;940.7625;;;;
2021/08/22 11:36:17;;;;;;;3;2.1;;;;;;;20.97;82.28516;940.6682;;;;
2021/08/22 11:38:42;;;;;;;3.6;2.2;;;;;;;21.13;81.02637;940.634;;;;
2021/08/22 11:41:08;;;;;;;2.5;2;;;;;;;21.18;79.66797;940.5759;;;;
2021/08/22 11:43:32;;;;;;;2.2;1.8;;;;;;;21.3;78.88281;940.5044;;;;
2021/08/22 11:45:58;;;;;;;2.5;2.2;;;;;;;21.23;79.20996;940.4339;;;;
2021/08/22 11:48:24;;;;;;;2.6;2;;;;;;;21.46;79.30859;940.415;;;;
2021/08/22 11:50:48;;;;;;;2.7;2.2;;;;;;;21.87;79.32227;940.396;;;;
2021/08/22 11:53:13;;;;;;;2.4;2;;;;;;;22.29;74.25;940.3798;;;;
2021/08/22 11:55:38;;;;;;;3.8;2.3;;;;;;;22.63;73.84766;940.3391;;;;
2021/08/22 11:58:03;;;;;;;2.4;2.2;;;;;;;22.72;74.8623;940.3658;;;;
2021/08/22 12:00:28;;;;;;;2.8;2.2;;;;;;;23.07;71.40723;940.3823;;;;
2021/08/22 12:02:53;;;;;;;2.5;2.1;;;;;;;23.03;69.18066;940.3909;;;;
2021/08/22 12:05:18;;;;;;;3.1;2.6;;;;;;;23.41;73.67285;940.3638;;;;
2021/08/22 12:07:43;;;;;;;2.5;2.2;;;;;;;23.63;71.14453;940.3109;;;;
2021/08/22 12:10:08;;;;;;;2.8;2.1;;;;;;;23.95;69.94922;940.3085;;;;
2021/08/22 12:12:34;;;;;;;2.7;1.9;;;;;;;23.98;65.50195;940.2352;;;;
2021/08/22 12:14:59;;;;;;;2.3;2.1;;;;;;;24.09;64.81152;940.24;;;;
2021/08/22 12:17:24;;;;;;;2.5;2.3;;;;;;;24.32;65.75293;940.2183;;;;
2021/08/22 12:19:49;;;;;;;2.9;2;;;;;;;24.2;67.67773;940.2269;;;;
2021/08/22 12:22:14;;;;;;;3;2.1;;;;;;;24.14;67.25781;940.2151;;;;
2021/08/22 12:24:39;;;;;;;2.3;2.1;;;;;;;24.4;67.54492;940.1646;;;;
2021/08/22 12:27:06;;;;;;;3;2.1;;;;;;;23.95;69.39648;940.1279;;;;
2021/08/22 12:29:30;;;;;;;3;2.4;;;;;;;24.13;70.21191;940.136;;;;
2021/08/22 12:31:55;;;;;;;2.2;2;;;;;;;24.67;64.5791;939.9903;;;;
2021/08/22 12:34:20;;;;;;;2.2;2;;;;;;;25.19;64.83008;939.928;;;;
2021/08/22 12:36:45;;;;;;;2.7;2.3;;;;;;;25.72;62.7793;939.9073;;;;
2021/08/22 12:39:10;;;;;;;2.9;2.2;;;;;;;25.03;63.48535;939.8111;;;;
2021/08/22 12:41:35;;;;;;;2.9;2.1;;;;;;;25.25;64.16504;939.8175;;;;
2021/08/22 12:44:00;;;;;;;2.4;2.1;;;;;;;26.26;59.15234;939.7689;;;;
2021/08/22 12:46:26;;;;;;;2.6;2;;;;;;;26.6;60.9502;939.7467;;;;
2021/08/22 12:48:51;;;;;;;2.1;1.9;;;;;;;26.71;55.89453;939.7393;;;;
2021/08/22 12:51:16;;;;;;;2.5;2;;;;;;;26.78;53.25;939.7177;;;;
2021/08/22 12:53:41;;;;;;;2;1.8;;;;;;;26.57;51.79102;939.7151;;;;
2021/08/22 12:56:06;;;;;;;2;1.8;;;;;;;26.66;53.61523;939.6347;;;;
2021/08/22 12:58:31;;;;;;;2.3;2.1;;;;;;;26.55;54.53711;939.546;;;;
2021/08/22 13:00:57;;;;;;;2.2;2;;;;;;;26.5;53.02734;939.498;;;;
2021/08/22 13:03:23;;;;;;;2.3;1.8;;;;;;;26.52;54.3916;939.4101;;;;
2021/08/22 13:05:48;;;;;;;2;1.6;;;;;;;26.45;53.08105;939.3842;;;;
2021/08/22 13:08:13;;;;;;;1.9;1.7;;;;;;;25.86;56.06055;939.3666;;;;
2021/08/22 13:10:38;;;;;;;2.4;2;;;;;;;25.27;58.83203;939.3491;;;;
2021/08/22 13:13:03;;;;;;;2.5;2;;;;;;;25.14;58.91016;939.3203;;;;
2021/08/22 13:15:29;;;;;;;2.6;1.9;;;;;;;25.13;59.25;939.2869;;;;
2021/08/22 13:17:54;;;;;;;2.4;2.1;;;;;;;24.63;61.83789;939.3403;;;;
2021/08/22 13:20:19;;;;;;;2.2;1.9;;;;;;;24.5;61.91406;939.252;;;;
2021/08/22 13:22:45;;;;;;;3;1.9;;;;;;;24.71;61.30664;939.3318;;;;
2021/08/22 13:25:10;;;;;;;2.4;2;;;;;;;25.08;60.51855;939.2605;;;;
2021/08/22 13:27:35;;;;;;;2.4;2;;;;;;;25.09;59.74219;939.2011;;;;
2021/08/22 13:30:01;;;;;;;2;1.8;;;;;;;24.73;61.81543;939.2368;;;;
2021/08/22 13:32:27;;;;;;;2.8;1.8;;;;;;;24.58;57.83398;939.1964;;;;
2021/08/22 13:34:53;;;;;;;2.8;2.1;;;;;;;24.11;63.8252;939.1586;;;;
2021/08/22 13:37:18;;;;;;;2.5;1.9;;;;;;;24.3;61.74512;939.1448;;;;
2021/08/22 13:39:44;;;;;;;2.7;2;;;;;;;24.3;59.97656;939.0945;;;;
2021/08/22 13:42:09;;;;;;;2.8;2.1;;;;;;;23.68;64.89355;939.1209;;;;
2021/08/22 13:44:35;;;;;;;2.8;2.2;;;;;;;23.85;61.64551;939.0919;;;;
2021/08/22 13:47:01;;;;;;;2.5;2.1;;;;;;;23.84;62.32715;939.0078;;;;
2021/08/22 13:49:25;;;;;;;2.9;1.9;;;;;;;24.1;60.62109;938.9688;;;;
2021/08/22 13:51:50;;;;;;;2.4;2.1;;;;;;;24.21;61.56641;938.9634;;;;
2021/08/22 13:54:15;;;;;;;2.2;1.7;;;;;;;24.11;61.3291;938.9877;;;;
2021/08/22 13:56:41;;;;;;;2;1.7;;;;;;;24.14;60.25;938.9311;;;;
2021/08/22 13:59:07;;;;;;;2.3;2;;;;;;;24.24;61.00586;938.971;;;;
2021/08/22 14:01:32;;;;;;;2.2;2;;;;;;;24.08;64.45898;938.9353;;;;
2021/08/22 14:03:56;;;;;;;2.7;2.1;;;;;;;24.1;62.26953;938.767;;;;
2021/08/22 14:06:23;;;;;;;2.1;1.7;;;;;;;24.03;62.81445;938.8306;;;;
2021/08/22 14:08:48;;;;;;;2;1.8;;;;;;;23.88;63.36914;938.8262;;;;
2021/08/22 14:11:13;;;;;;;2;1.8;;;;;;;24.01;61.66797;938.777;;;;
2021/08/22 14:13:38;;;;;;;2.1;1.8;;;;;;;24.68;60.53613;938.8592;;;;
2021/08/22 14:16:03;;;;;;;3;2;;;;;;;24.83;58.38574;938.8879;;;;
2021/08/22 14:18:29;;;;;;;2.3;2;;;;;;;25.27;57.28613;938.89;;;;
2021/08/22 14:20:54;;;;;;;1.8;1.7;;;;;;;25.33;57.88379;938.8187;;;;
2021/08/22 14:23:19;;;;;;;1.9;1.7;;;;;;;25.32;56.79688;938.8143;;;;